Terminal Aerodrome Forecast
Issued by NWS

Home | Current Version | Previous Version | Text Only | Print | Product List | Glossary On
Versions: 1 2 3 4 5 6 7 8 9 10 11 12
624
FTUS43 KEAX 222327
TAFSTJ
TAF
KSTJ 222327Z 2300/2324 36008KT P6SM VCTS FEW060CB
     FM230600 30004KT P6SM BKN250=

USA.gov is the U.S. government's official web portal to all federal, state and local government web resources and services.